Time;durP1;ratioP1;P1;durP2;ratioP2;P2;SDS_P1;SDS_P2;PMS_P1;PMS_P2;Temp;Humidity;BMP_temperature;BMP_pressure;BME280_temperature;BME280_humidity;BME280_pressure;Samples;Min_cycle;Max_cycle;Signal;HPM_P1;HPM_P2
2021/07/27 00:00:31;;;;;;;1.90;0.85;;;;;;;14.73;89.58;100539.84;4974109;28;20081;-82
2021/07/27 00:02:56;;;;;;;3.33;0.95;;;;;;;14.62;89.88;100540.47;4938941;29;20091;-82
2021/07/27 00:05:22;;;;;;;8.40;1.10;;;;;;;14.63;90.26;100540.28;4954706;28;20031;-83
2021/07/27 00:07:47;;;;;;;3.72;1.17;;;;;;;14.65;90.21;100531.94;4939572;28;20043;-83
2021/07/27 00:10:13;;;;;;;5.55;1.00;;;;;;;14.70;90.09;100546.50;4940054;28;20019;-82
2021/07/27 00:12:38;;;;;;;2.78;0.90;;;;;;;14.75;90.06;100545.91;4936913;29;20046;-82
2021/07/27 00:15:04;;;;;;;4.32;0.90;;;;;;;14.74;90.02;100544.25;4935320;28;20050;-82
2021/07/27 00:17:30;;;;;;;3.05;0.77;;;;;;;14.66;90.08;100544.41;4953131;28;20565;-82
2021/07/27 00:19:56;;;;;;;1.63;0.90;;;;;;;14.63;90.03;100542.13;4953265;28;20103;-82
2021/07/27 00:22:22;;;;;;;6.57;1.27;;;;;;;14.59;90.57;100551.72;4941163;28;20054;-83
2021/07/27 00:24:48;;;;;;;2.67;0.95;;;;;;;14.53;90.81;100529.03;4957288;28;20023;-82
2021/07/27 00:27:13;;;;;;;4.60;1.00;;;;;;;14.61;90.77;100544.25;4939258;28;20026;-82
2021/07/27 00:29:38;;;;;;;2.42;0.77;;;;;;;14.52;90.53;100525.47;4938609;29;20027;-82
2021/07/27 00:32:04;;;;;;;2.17;0.70;;;;;;;14.63;90.75;100534.03;4955046;28;20035;-82
2021/07/27 00:34:29;;;;;;;3.72;0.68;;;;;;;14.68;90.92;100537.75;4951829;28;20042;-82
2021/07/27 00:36:55;;;;;;;1.73;0.68;;;;;;;14.71;90.65;100539.22;4937338;28;20060;-82
2021/07/27 00:39:20;;;;;;;2.70;0.70;;;;;;;14.78;90.83;100529.22;4939992;28;20034;-83
2021/07/27 00:41:46;;;;;;;2.13;0.75;;;;;;;14.87;90.57;100538.81;4954188;28;20027;-82
2021/07/27 00:44:11;;;;;;;2.28;0.70;;;;;;;14.87;90.39;100541.53;4958191;28;20035;-82
2021/07/27 00:46:37;;;;;;;2.33;0.60;;;;;;;14.85;90.37;100535.47;4951143;28;20113;-82
2021/07/27 00:49:02;;;;;;;1.80;0.73;;;;;;;14.91;90.56;100542.75;4952020;28;20027;-82
2021/07/27 00:51:30;;;;;;;1.38;0.60;;;;;;;14.87;90.56;100533.41;4954730;28;20078;-82
2021/07/27 00:53:56;;;;;;;2.75;0.52;;;;;;;14.84;90.46;100531.09;4955726;28;20561;-83
2021/07/27 00:56:22;;;;;;;2.03;0.40;;;;;;;14.78;90.68;100525.69;4953908;28;20095;-82
2021/07/27 00:58:47;;;;;;;1.70;0.50;;;;;;;14.88;91.00;100534.22;4932005;28;20427;-82
2021/07/27 01:01:13;;;;;;;2.45;0.57;;;;;;;14.81;90.65;100530.69;4933661;28;20027;-83
2021/07/27 01:03:38;;;;;;;2.55;0.70;;;;;;;14.83;90.50;100520.50;4932812;28;20031;-82
2021/07/27 01:06:04;;;;;;;3.13;0.52;;;;;;;14.87;90.39;100529.84;4952122;28;20034;-82
2021/07/27 01:08:31;;;;;;;1.83;0.47;;;;;;;14.79;90.74;100524.66;4945940;28;20247;-82
2021/07/27 01:10:56;;;;;;;4.70;1.13;;;;;;;14.78;90.87;100523.00;4961380;28;20058;-82
2021/07/27 01:13:21;;;;;;;3.47;0.50;;;;;;;14.74;91.37;100517.19;4964068;28;20881;-83
2021/07/27 01:15:47;;;;;;;2.45;0.70;;;;;;;14.76;91.37;100516.94;4944591;28;20027;-83
2021/07/27 01:18:20;;;;;;;1.10;0.70;;;;;;;14.76;91.19;100506.13;4963031;28;20043;-82
2021/07/27 01:39:40;;;;;;;3.47;1.02;;;;;;;14.83;91.08;100498.84;4959707;28;20131;-82
2021/07/27 01:42:12;;;;;;;1.98;0.60;;;;;;;14.84;91.09;100505.91;4943784;28;20031;-82
2021/07/27 01:44:47;;;;;;;0.60;0.50;;;;;;;14.82;91.14;100500.72;4965310;28;20011;-82
2021/07/27 01:47:22;;;;;;;2.15;0.60;;;;;;;14.80;91.28;100499.25;4966069;28;20039;-83
2021/07/27 01:49:48;;;;;;;3.05;0.60;;;;;;;14.72;90.93;100500.31;4964751;28;20027;-82
2021/07/27 01:52:14;;;;;;;1.55;0.65;;;;;;;14.74;91.64;100500.94;4968456;28;20034;-82
2021/07/27 01:55:13;;;;;;;1.60;0.73;;;;;;;14.76;91.52;100504.25;4968499;28;20046;-82
2021/07/27 01:57:31;;;;;;;2.13;0.50;;;;;;;14.76;91.76;100493.41;4964770;28;20038;-83
2021/07/27 01:59:57;;;;;;;2.17;0.70;;;;;;;14.83;91.59;100498.84;4964832;28;20039;-83
2021/07/27 02:02:22;;;;;;;1.00;0.57;;;;;;;14.85;91.48;100491.34;4966990;28;20023;-83
2021/07/27 02:04:47;;;;;;;5.22;0.57;;;;;;;14.73;91.53;100483.00;4947306;28;20015;-82
2021/07/27 02:07:13;;;;;;;4.13;0.85;;;;;;;14.80;91.49;100488.44;4964223;28;20190;-82
2021/07/27 02:09:41;;;;;;;7.43;0.70;;;;;;;14.75;91.33;100480.94;4944749;28;20061;-82
2021/07/27 02:12:16;;;;;;;0.90;0.73;;;;;;;14.77;91.99;100486.16;4964661;28;20119;-83
2021/07/27 02:17:25;;;;;;;2.72;0.50;;;;;;;14.59;91.89;100465.13;4960823;28;20038;-83
2021/07/27 02:19:50;;;;;;;1.35;1.02;;;;;;;14.65;92.49;100475.94;4956382;28;20039;-83
2021/07/27 02:22:17;;;;;;;2.63;0.60;;;;;;;14.68;92.15;100474.69;4942824;28;20702;-82
2021/07/27 02:24:45;;;;;;;3.28;0.52;;;;;;;14.47;92.45;100440.53;4959721;28;20103;-83
2021/07/27 02:27:11;;;;;;;1.67;0.50;;;;;;;14.63;92.58;100469.06;4943729;28;20122;-83
2021/07/27 02:29:37;;;;;;;0.80;0.50;;;;;;;14.58;92.59;100458.03;4943162;28;20024;-83
2021/07/27 02:32:03;;;;;;;5.35;0.88;;;;;;;14.59;92.67;100448.91;4940522;28;20073;-83
2021/07/27 02:34:32;;;;;;;3.70;0.60;;;;;;;14.60;92.62;100450.56;4941983;29;21243;-83
2021/07/27 02:36:58;;;;;;;1.25;0.50;;;;;;;14.60;92.81;100445.16;4959954;28;20042;-83
2021/07/27 02:39:23;;;;;;;1.10;0.60;;;;;;;14.59;92.61;100444.31;4941508;28;20061;-82
2021/07/27 02:41:48;;;;;;;2.88;0.63;;;;;;;14.60;92.81;100445.16;4957432;28;20641;-82
2021/07/27 02:44:14;;;;;;;1.73;0.60;;;;;;;14.48;92.82;100434.09;4958078;28;20034;-82
2021/07/27 02:46:39;;;;;;;2.22;0.52;;;;;;;14.50;93.00;100443.69;4940519;28;20506;-83
2021/07/27 02:49:05;;;;;;;1.67;0.60;;;;;;;14.49;93.02;100447.41;4957207;28;20137;-83
2021/07/27 02:51:30;;;;;;;5.65;0.80;;;;;;;14.50;92.94;100446.38;4957354;28;20122;-82
2021/07/27 02:53:56;;;;;;;1.48;0.60;;;;;;;14.48;93.23;100445.75;4960149;28;20034;-83
2021/07/27 02:56:22;;;;;;;1.30;0.77;;;;;;;14.46;93.21;100438.88;4968789;28;20031;-82
2021/07/27 02:58:47;;;;;;;4.68;0.85;;;;;;;14.47;93.68;100441.41;4970928;28;20035;-82
2021/07/27 03:01:13;;;;;;;1.83;0.60;;;;;;;14.43;93.55;100436.59;4940005;28;20033;-82
2021/07/27 03:03:38;;;;;;;1.38;0.70;;;;;;;14.46;93.92;100434.31;4956820;28;20042;-82
2021/07/27 03:06:04;;;;;;;1.58;0.70;;;;;;;14.54;93.61;100435.16;4941273;28;20447;-83
2021/07/27 03:09:14;;;;;;;1.92;0.80;;;;;;;14.51;93.39;100434.50;4958378;28;20027;-83
2021/07/27 03:11:21;;;;;;;4.00;0.93;;;;;;;14.52;93.65;100433.50;4950383;28;20040;-83
2021/07/27 03:13:46;;;;;;;5.30;1.20;;;;;;;14.56;93.55;100438.50;4929499;28;20035;-83
2021/07/27 03:16:20;;;;;;;5.40;1.25;;;;;;;14.56;93.82;100430.38;4932539;28;21423;-83
2021/07/27 03:18:51;;;;;;;3.53;1.23;;;;;;;14.55;93.61;100428.72;4955584;28;20027;-83
2021/07/27 03:21:21;;;;;;;6.28;1.95;;;;;;;14.62;93.56;100432.25;4930760;28;20035;-83
2021/07/27 03:23:47;;;;;;;8.88;2.30;;;;;;;14.58;93.64;100431.84;4947961;28;20087;-83
2021/07/27 03:26:13;;;;;;;4.50;1.38;;;;;;;14.52;93.58;100422.66;4947321;28;20097;-82
2021/07/27 03:28:41;;;;;;;6.80;1.67;;;;;;;14.49;94.01;100422.22;4946713;29;20368;-84
2021/07/27 03:31:07;;;;;;;5.07;1.55;;;;;;;14.58;93.95;100425.56;4935040;28;20031;-81
2021/07/27 03:33:32;;;;;;;3.70;1.48;;;;;;;14.68;94.00;100437.63;4931347;28;20035;-84
2021/07/27 03:35:58;;;;;;;4.13;0.90;;;;;;;14.71;93.87;100437.25;4950596;28;20102;-83
2021/07/27 03:38:23;;;;;;;2.20;1.13;;;;;;;14.78;93.70;100439.91;4963433;28;20054;-79
2021/07/27 03:40:49;;;;;;;5.82;1.17;;;;;;;14.78;93.32;100437.22;4933968;29;20034;-82
2021/07/27 03:43:14;;;;;;;3.33;0.98;;;;;;;14.78;93.30;100433.69;4948809;28;20449;-84
2021/07/27 03:45:40;;;;;;;2.80;0.75;;;;;;;14.78;93.80;100430.97;4932429;29;20035;-79
2021/07/27 03:48:05;;;;;;;2.97;1.13;;;;;;;14.81;93.50;100425.97;4935945;28;20038;-84
2021/07/27 03:50:31;;;;;;;1.80;0.90;;;;;;;14.86;93.21;100436.97;4934345;28;20086;-83
2021/07/27 03:52:56;;;;;;;2.70;0.82;;;;;;;14.87;93.08;100426.97;4932767;28;20023;-80
2021/07/27 03:55:22;;;;;;;2.25;0.80;;;;;;;14.90;92.79;100440.94;4951170;28;20034;-83
2021/07/27 03:57:47;;;;;;;2.63;0.85;;;;;;;14.78;92.80;100417.44;4942794;28;20082;-84
2021/07/27 04:00:13;;;;;;;2.30;0.80;;;;;;;14.88;92.74;100436.78;4945012;28;20505;-80
2021/07/27 04:02:38;;;;;;;2.45;0.75;;;;;;;14.88;92.75;100431.38;4933948;28;20677;-82
2021/07/27 04:05:08;;;;;;;1.92;0.80;;;;;;;14.90;92.52;100440.13;4932114;29;20039;-83
2021/07/27 04:07:33;;;;;;;1.30;0.80;;;;;;;14.98;92.62;100439.03;4943839;28;20110;-81
2021/07/27 04:09:59;;;;;;;2.40;0.82;;;;;;;15.00;92.45;100442.34;4936869;29;20273;-81
2021/07/27 04:12:25;;;;;;;1.55;0.73;;;;;;;14.96;92.25;100444.66;4930190;28;20027;-84
2021/07/27 04:14:50;;;;;;;1.33;0.70;;;;;;;14.87;92.34;100425.13;4932411;28;20038;-84
2021/07/27 04:17:19;;;;;;;1.98;0.90;;;;;;;14.90;91.96;100435.53;4944709;28;20038;-81
2021/07/27 04:19:48;;;;;;;1.20;0.82;;;;;;;14.87;92.51;100441.38;4960627;28;20039;-81
2021/07/27 04:22:14;;;;;;;1.67;0.85;;;;;;;14.82;92.85;100438.47;4956547;28;20035;-82
2021/07/27 04:24:40;;;;;;;2.65;1.48;;;;;;;14.82;93.13;100437.59;4956985;28;20027;-82
2021/07/27 04:27:05;;;;;;;5.07;1.08;;;;;;;14.81;93.27;100436.78;4952728;28;20549;-83
2021/07/27 04:29:31;;;;;;;1.75;1.08;;;;;;;14.84;93.52;100441.78;4960124;28;20066;-82
2021/07/27 04:31:56;;;;;;;2.83;1.05;;;;;;;14.87;93.31;100446.78;4955783;28;20034;-82
2021/07/27 04:34:22;;;;;;;2.95;1.10;;;;;;;14.82;93.25;100430.34;4937109;28;20091;-82
2021/07/27 04:36:53;;;;;;;4.65;1.00;;;;;;;14.88;93.52;100443.03;4942493;28;20103;-82
2021/07/27 04:39:18;;;;;;;6.57;1.38;;;;;;;14.84;93.41;100428.22;4940168;28;20031;-82
2021/07/27 04:41:44;;;;;;;2.85;0.95;;;;;;;14.84;93.05;100428.22;4966621;28;20117;-83
2021/07/27 04:44:09;;;;;;;2.13;1.00;;;;;;;14.91;93.18;100439.88;4956343;28;20031;-83
2021/07/27 04:46:35;;;;;;;2.83;1.00;;;;;;;14.93;93.16;100442.41;4953743;28;20305;-82
2021/07/27 04:49:01;;;;;;;2.60;0.98;;;;;;;14.90;93.16;100438.25;4954698;28;20430;-82
2021/07/27 04:51:30;;;;;;;2.17;0.90;;;;;;;14.97;93.32;100434.66;4952289;28;20808;-82
2021/07/27 04:53:58;;;;;;;3.72;0.93;;;;;;;14.95;93.05;100430.31;4955488;28;20609;-82
2021/07/27 04:56:25;;;;;;;2.72;1.00;;;;;;;14.95;93.37;100424.03;4953172;28;20031;-82
2021/07/27 04:58:51;;;;;;;2.65;1.23;;;;;;;15.01;93.39;100435.91;4956800;28;20122;-82
2021/07/27 05:01:17;;;;;;;3.65;1.00;;;;;;;15.03;93.21;100434.66;4957930;28;20046;-82
2021/07/27 05:03:42;;;;;;;2.55;1.08;;;;;;;14.97;93.01;100421.13;4956225;28;20051;-82
2021/07/27 05:06:08;;;;;;;2.30;1.00;;;;;;;14.91;93.03;100420.09;4951462;28;20114;-82
2021/07/27 05:08:33;;;;;;;1.77;1.00;;;;;;;14.98;93.17;100422.78;4929431;28;20082;-81
2021/07/27 05:11:02;;;;;;;2.13;0.80;;;;;;;14.85;93.36;100408.25;4944410;29;20099;-82
2021/07/27 05:13:28;;;;;;;1.52;0.80;;;;;;;15.06;93.43;100433.41;4926058;29;20058;-82
2021/07/27 05:15:55;;;;;;;1.40;0.60;;;;;;;15.03;93.34;100425.69;4945321;29;20046;-82
2021/07/27 05:18:20;;;;;;;3.17;0.60;;;;;;;15.01;93.39;100425.09;4932603;28;20042;-82
2021/07/27 05:20:46;;;;;;;3.72;0.60;;;;;;;14.99;93.51;100416.34;4944713;28;20023;-82
2021/07/27 05:23:11;;;;;;;3.65;0.50;;;;;;;15.01;93.63;100427.81;4930955;28;20035;-82
2021/07/27 05:25:39;;;;;;;1.33;0.50;;;;;;;15.00;93.43;100429.66;4933332;28;20062;-82
2021/07/27 05:28:07;;;;;;;1.40;0.38;;;;;;;15.00;93.56;100436.94;4959927;28;20043;-82
2021/07/27 05:30:32;;;;;;;0.50;0.30;;;;;;;14.92;93.68;100419.91;4944488;29;20053;-81
2021/07/27 05:33:01;;;;;;;1.63;0.50;;;;;;;14.86;93.77;100428.84;4958936;29;20439;-82
2021/07/27 05:35:26;;;;;;;0.40;0.40;;;;;;;14.85;93.81;100432.63;4952356;28;20383;-82
2021/07/27 05:37:52;;;;;;;0.90;0.30;;;;;;;14.85;93.79;100440.75;4961586;28;20557;-82
2021/07/27 05:40:17;;;;;;;0.70;0.30;;;;;;;14.81;93.90;100441.38;4963721;28;20050;-82
2021/07/27 05:42:43;;;;;;;0.52;0.30;;;;;;;14.80;94.21;100437.00;4941712;29;20016;-82
2021/07/27 05:45:09;;;;;;;0.30;0.30;;;;;;;14.82;93.57;100443.88;4957388;28;20031;-82
2021/07/27 05:47:34;;;;;;;0.52;0.20;;;;;;;14.80;93.48;100442.44;4953591;29;20043;-81
2021/07/27 05:50:00;;;;;;;1.45;0.20;;;;;;;14.70;93.44;100434.72;4947971;29;20083;-81
2021/07/27 05:52:25;;;;;;;0.30;0.30;;;;;;;14.70;93.33;100437.44;4954663;28;20431;-81
2021/07/27 05:54:51;;;;;;;0.57;0.40;;;;;;;14.64;93.41;100431.00;4968176;28;20046;-81
2021/07/27 05:57:17;;;;;;;0.45;0.38;;;;;;;14.71;93.31;100444.50;4952600;29;20038;-82
2021/07/27 05:59:43;;;;;;;1.58;0.50;;;;;;;14.71;93.12;100455.31;4950708;29;20042;-82
2021/07/27 06:02:09;;;;;;;0.88;0.45;;;;;;;14.62;92.79;100445.78;4943709;28;20032;-80
2021/07/27 06:04:35;;;;;;;3.05;0.50;;;;;;;14.61;93.01;100457.66;4946209;29;20023;-81
2021/07/27 06:07:03;;;;;;;0.93;0.50;;;;;;;14.61;92.98;100458.47;4932893;29;20083;-81
2021/07/27 06:09:29;;;;;;;1.58;0.60;;;;;;;14.57;93.28;100459.09;4951997;28;20102;-81
2021/07/27 06:11:54;;;;;;;0.80;0.43;;;;;;;14.48;92.95;100443.06;4951047;28;20027;-81
2021/07/27 06:14:20;;;;;;;2.42;1.05;;;;;;;14.63;93.16;100469.06;4931727;28;20038;-81
2021/07/27 06:16:45;;;;;;;2.30;0.52;;;;;;;14.57;92.88;100462.63;4936937;29;20030;-81
2021/07/27 06:19:11;;;;;;;1.30;0.55;;;;;;;14.56;93.19;100468.28;4936431;28;20031;-81
2021/07/27 06:21:38;;;;;;;0.88;0.50;;;;;;;14.64;93.46;100476.16;4952952;29;20494;-82
2021/07/27 06:24:06;;;;;;;2.55;0.60;;;;;;;14.62;93.16;100470.13;4952645;28;20023;-81
2021/07/27 06:26:32;;;;;;;1.27;0.57;;;;;;;14.63;92.65;100467.22;4933677;29;20028;-81
2021/07/27 06:28:57;;;;;;;1.77;0.75;;;;;;;14.63;92.97;100469.06;4928944;29;20077;-81
2021/07/27 06:31:24;;;;;;;3.80;0.70;;;;;;;14.63;92.88;100469.06;4949522;28;20494;-81
2021/07/27 06:33:49;;;;;;;2.15;0.77;;;;;;;14.65;92.73;100481.34;4951605;28;20031;-79
2021/07/27 06:36:14;;;;;;;2.30;0.80;;;;;;;14.59;92.45;100481.38;4949387;28;20042;-80
2021/07/27 06:38:40;;;;;;;5.47;1.10;;;;;;;14.50;92.20;100475.28;4938143;28;20023;-80
2021/07/27 06:41:07;;;;;;;2.67;1.02;;;;;;;14.56;92.30;100482.63;4954643;29;20402;-80
2021/07/27 06:43:37;;;;;;;4.05;1.20;;;;;;;14.52;92.11;100476.78;4954760;29;20036;-79
2021/07/27 06:46:02;;;;;;;3.72;1.48;;;;;;;14.59;92.09;100484.91;4955591;29;20476;-79
2021/07/27 06:48:28;;;;;;;2.10;1.20;;;;;;;14.59;92.09;100486.78;4970866;28;20143;-81
2021/07/27 06:50:56;;;;;;;4.32;1.13;;;;;;;14.58;91.74;100491.38;4956355;28;20038;-84
2021/07/27 06:53:23;;;;;;;4.30;1.30;;;;;;;14.59;91.60;100490.31;4956669;29;20055;-81
2021/07/27 06:55:49;;;;;;;2.88;1.30;;;;;;;14.56;91.71;100482.63;4958453;28;20019;-83
2021/07/27 06:58:14;;;;;;;3.95;1.48;;;;;;;14.57;91.51;100480.75;4937439;29;20041;-82
2021/07/27 07:00:39;;;;;;;4.82;1.40;;;;;;;14.58;91.21;100477.84;4951739;29;20023;-82
2021/07/27 07:03:06;;;;;;;2.88;1.20;;;;;;;14.66;91.22;100495.72;4935802;29;20027;-83
2021/07/27 07:05:31;;;;;;;2.42;1.25;;;;;;;14.62;91.10;100480.94;4961384;29;20098;-83
2021/07/27 07:07:57;;;;;;;2.97;1.45;;;;;;;14.71;91.41;100495.91;4946836;29;20027;-82
2021/07/27 07:10:22;;;;;;;2.92;1.45;;;;;;;14.70;90.96;100494.25;4946719;29;20023;-85
2021/07/27 07:12:48;;;;;;;2.97;1.45;;;;;;;14.66;90.94;100484.88;4949571;29;20043;-85
2021/07/27 07:15:14;;;;;;;4.03;1.50;;;;;;;14.74;90.91;100495.53;4943756;29;20058;-85
2021/07/27 07:17:39;;;;;;;5.55;1.50;;;;;;;14.74;91.12;100495.53;4965162;29;20026;-84
2021/07/27 07:20:05;;;;;;;3.35;1.40;;;;;;;14.79;90.91;100506.56;4945906;29;20067;-84
2021/07/27 07:22:31;;;;;;;4.47;1.52;;;;;;;14.81;90.92;100504.44;4958867;29;20065;-84
2021/07/27 07:24:57;;;;;;;3.42;1.33;;;;;;;14.83;90.96;100510.50;4949417;28;20082;-84
2021/07/27 07:27:22;;;;;;;6.78;1.58;;;;;;;14.83;90.97;100507.78;4963838;28;20027;-85
2021/07/27 07:29:48;;;;;;;3.60;1.95;;;;;;;14.66;90.76;100480.34;4962995;29;20055;-83
2021/07/27 07:32:13;;;;;;;4.13;1.80;;;;;;;14.82;90.61;100502.56;4960644;28;20509;-83
2021/07/27 07:34:39;;;;;;;5.13;1.63;;;;;;;14.81;90.96;100514.44;4950629;29;20039;-83
2021/07/27 07:37:06;;;;;;;5.03;2.00;;;;;;;14.80;90.72;100516.34;4933599;28;20054;-83
2021/07/27 07:39:33;;;;;;;5.45;2.00;;;;;;;14.70;90.49;100515.91;4933002;29;20106;-84
2021/07/27 07:41:59;;;;;;;5.32;1.85;;;;;;;14.75;91.01;100523.41;4950656;29;20047;-83
2021/07/27 07:44:25;;;;;;;4.50;1.83;;;;;;;14.68;91.15;100520.69;4932342;29;20051;-82
2021/07/27 07:46:50;;;;;;;4.63;1.90;;;;;;;14.61;91.25;100517.19;4934499;29;20111;-82
2021/07/27 07:49:16;;;;;;;4.93;2.60;;;;;;;14.69;91.39;100534.03;4947272;29;20476;-83
2021/07/27 07:51:46;;;;;;;5.40;2.65;;;;;;;14.68;91.68;100531.53;4949816;29;20031;-82
2021/07/27 07:54:12;;;;;;;6.05;2.50;;;;;;;14.71;91.58;100531.09;4935109;29;20024;-83
2021/07/27 07:56:43;;;;;;;3.83;1.75;;;;;;;14.73;91.63;100537.16;4954594;28;20027;-83
2021/07/27 07:59:08;;;;;;;4.85;2.00;;;;;;;14.67;91.57;100533.41;4944065;29;20391;-83
2021/07/27 08:01:33;;;;;;;4.32;1.75;;;;;;;14.70;91.48;100534.84;4942580;29;20023;-79
2021/07/27 08:03:59;;;;;;;9.90;2.70;;;;;;;14.71;91.29;100534.66;4952810;29;20059;-81
2021/07/27 08:06:25;;;;;;;4.40;2.15;;;;;;;14.68;91.62;100526.94;4939114;29;20043;-82
2021/07/27 08:08:51;;;;;;;5.45;2.17;;;;;;;14.72;91.40;100511.13;4953042;28;20027;-80
2021/07/27 08:11:16;;;;;;;5.10;2.42;;;;;;;14.77;91.51;100522.16;4946656;29;20035;-80
2021/07/27 08:13:42;;;;;;;4.82;2.10;;;;;;;14.81;91.64;100515.28;4937728;29;20038;-81
2021/07/27 08:16:11;;;;;;;4.70;1.92;;;;;;;14.83;91.43;100524.03;4954548;29;20034;-80
2021/07/27 08:18:37;;;;;;;5.93;2.50;;;;;;;14.99;91.24;100533.59;4952800;29;20119;-81
2021/07/27 08:21:03;;;;;;;6.47;1.80;;;;;;;15.00;90.94;100532.53;4954049;29;20041;-81
2021/07/27 08:23:28;;;;;;;6.53;2.30;;;;;;;14.96;90.90;100542.13;4955288;28;20031;-80
2021/07/27 08:25:54;;;;;;;7.53;2.38;;;;;;;14.85;90.39;100527.38;4953182;29;20031;-82
2021/07/27 08:28:19;;;;;;;5.70;1.90;;;;;;;14.87;90.58;100540.66;4946610;29;20032;-80
2021/07/27 08:30:44;;;;;;;6.07;2.80;;;;;;;14.89;90.59;100528.59;4936649;29;20031;-81
2021/07/27 08:33:10;;;;;;;8.48;2.63;;;;;;;14.95;90.60;100527.78;4950487;28;20086;-82
2021/07/27 08:35:35;;;;;;;5.05;2.13;;;;;;;15.04;90.52;100533.78;4954576;29;20106;-81
2021/07/27 08:38:01;;;;;;;5.40;2.38;;;;;;;15.14;90.26;100538.78;4945042;28;20050;-84
2021/07/27 08:40:28;;;;;;;6.47;2.22;;;;;;;15.15;90.25;100533.13;4964844;29;20023;-85
2021/07/27 08:42:54;;;;;;;5.45;2.80;;;;;;;15.07;90.41;100500.88;4957427;29;20118;-84
2021/07/27 08:45:19;;;;;;;6.18;3.00;;;;;;;15.20;90.26;100513.56;4934819;29;20114;-85
2021/07/27 08:47:49;;;;;;;4.82;2.00;;;;;;;15.34;89.66;100534.13;4950831;29;20023;-84
2021/07/27 08:50:16;;;;;;;6.35;2.05;;;;;;;15.26;89.52;100525.41;4950969;29;20114;-84
2021/07/27 08:52:42;;;;;;;6.07;2.03;;;;;;;15.33;89.65;100526.25;4951552;28;20024;-84
2021/07/27 08:55:08;;;;;;;5.93;2.10;;;;;;;15.48;89.72;100534.09;4950226;28;20046;-82
2021/07/27 08:57:34;;;;;;;6.72;2.22;;;;;;;15.43;89.29;100525.78;4935766;28;20029;-82
2021/07/27 09:00:00;;;;;;;4.47;1.88;;;;;;;15.53;88.88;100528.88;4964237;28;20054;-82
2021/07/27 09:02:26;;;;;;;4.55;1.80;;;;;;;15.61;88.85;100532.19;4941591;29;20027;-82
2021/07/27 09:05:07;;;;;;;3.53;1.60;;;;;;;15.60;88.78;100526.97;4956826;28;20067;-84
2021/07/27 09:07:32;;;;;;;4.40;1.73;;;;;;;15.66;88.60;100526.09;4956719;28;20031;-83
2021/07/27 09:09:57;;;;;;;7.15;2.78;;;;;;;15.72;88.69;100529.88;4956520;29;20038;-83
2021/07/27 09:12:23;;;;;;;7.03;2.40;;;;;;;15.74;88.04;100528.59;4956746;29;20039;-82
2021/07/27 09:14:48;;;;;;;4.05;1.75;;;;;;;15.75;88.16;100530.28;4956922;28;20039;-84
2021/07/27 09:17:14;;;;;;;7.72;2.35;;;;;;;15.79;88.06;100544.22;4939926;28;20043;-80
2021/07/27 09:19:41;;;;;;;4.30;2.10;;;;;;;15.81;87.17;100531.28;4969966;28;20035;-82
2021/07/27 09:22:06;;;;;;;5.88;2.22;;;;;;;15.92;87.65;100540.63;4945368;29;20019;-80
2021/07/27 09:24:37;;;;;;;6.75;2.55;;;;;;;15.90;86.83;100535.41;4960445;29;20043;-80
2021/07/27 09:27:08;;;;;;;5.30;2.17;;;;;;;15.90;86.42;100542.72;4960663;29;20015;-81
2021/07/27 09:29:45;;;;;;;6.00;2.22;;;;;;;15.89;86.03;100541.06;4947138;29;20198;-81
2021/07/27 09:32:20;;;;;;;7.45;2.83;;;;;;;15.89;86.13;100541.06;4962904;29;20114;-80
2021/07/27 09:34:47;;;;;;;6.40;2.40;;;;;;;15.89;86.51;100535.63;4964484;29;20083;-80
2021/07/27 09:37:13;;;;;;;6.28;2.60;;;;;;;15.89;86.57;100536.47;4951158;29;20035;-80
2021/07/27 09:39:38;;;;;;;6.95;2.38;;;;;;;15.95;86.64;100543.72;4962992;29;20030;-80
2021/07/27 09:42:07;;;;;;;6.28;2.60;;;;;;;15.93;86.42;100543.13;4963490;29;20019;-81
2021/07/27 09:44:33;;;;;;;7.05;2.50;;;;;;;15.97;85.65;100538.94;4962699;29;20145;-81
2021/07/27 09:47:00;;;;;;;6.22;2.47;;;;;;;15.96;85.23;100534.56;4962814;29;20359;-81
2021/07/27 09:49:26;;;;;;;5.53;2.75;;;;;;;15.99;85.08;100555.00;4963890;28;20078;-81
2021/07/27 09:51:52;;;;;;;6.22;2.40;;;;;;;15.95;85.11;100545.63;4962593;29;20096;-80
2021/07/27 09:54:21;;;;;;;8.05;2.85;;;;;;;16.02;85.39;100554.56;4962502;29;20550;-81
2021/07/27 09:56:47;;;;;;;10.32;2.75;;;;;;;16.00;84.82;100551.22;4946522;28;20406;-80
2021/07/27 09:59:17;;;;;;;6.47;3.03;;;;;;;16.07;85.13;100546.59;4956491;29;20042;-81
2021/07/27 10:01:44;;;;;;;5.38;2.47;;;;;;;16.19;84.80;100550.25;4962541;29;20249;-80
2021/07/27 10:04:09;;;;;;;6.20;2.83;;;;;;;16.26;84.21;100542.09;4958955;29;20098;-81
2021/07/27 10:06:37;;;;;;;6.65;2.60;;;;;;;16.47;83.58;100549.06;4961710;29;20027;-80
2021/07/27 10:09:04;;;;;;;8.60;2.55;;;;;;;16.61;82.84;100549.78;4956718;28;20102;-81
2021/07/27 10:11:38;;;;;;;5.80;2.17;;;;;;;16.70;81.60;100545.75;4952179;28;20020;-81
2021/07/27 10:14:08;;;;;;;6.93;2.70;;;;;;;16.75;80.77;100553.22;4962315;29;20375;-80
2021/07/27 10:16:34;;;;;;;7.15;2.70;;;;;;;16.70;81.06;100530.28;4960778;28;20031;-80
2021/07/27 10:19:32;;;;;;;7.68;2.40;;;;;;;16.62;81.81;100530.56;4954553;29;20475;-81
2021/07/27 10:22:02;;;;;;;6.50;2.80;;;;;;;16.79;81.19;100539.00;4958572;29;20166;-81
2021/07/27 10:24:44;;;;;;;4.43;2.00;;;;;;;16.83;80.39;100540.25;4961782;28;20074;-81
2021/07/27 10:27:21;;;;;;;6.38;2.28;;;;;;;16.83;80.32;100539.38;4958556;29;20023;-81
2021/07/27 10:29:48;;;;;;;7.43;2.75;;;;;;;16.87;80.46;100548.78;4959649;29;20462;-81
2021/07/27 10:32:17;;;;;;;8.38;3.00;;;;;;;16.88;80.64;100545.84;4960830;29;20028;-81
2021/07/27 10:34:43;;;;;;;5.20;2.20;;;;;;;16.93;79.98;100542.44;4954144;29;20019;-81
2021/07/27 10:37:15;;;;;;;9.18;2.70;;;;;;;16.86;79.62;100538.97;4950658;28;20027;-82
2021/07/27 10:39:52;;;;;;;7.22;2.53;;;;;;;16.88;80.24;100543.13;4950559;29;20015;-82
2021/07/27 10:42:18;;;;;;;5.30;2.40;;;;;;;16.92;80.34;100538.91;4951440;29;20023;-82
2021/07/27 10:44:44;;;;;;;7.15;3.03;;;;;;;17.09;79.77;100538.31;4934412;29;20203;-80
2021/07/27 10:47:18;;;;;;;8.68;2.78;;;;;;;17.20;79.48;100539.47;4938282;29;20516;-80
2021/07/27 10:49:44;;;;;;;4.32;2.40;;;;;;;17.23;79.97;100542.59;4952458;29;20517;-82
2021/07/27 10:52:09;;;;;;;6.95;2.55;;;;;;;17.31;79.51;100534.13;4953264;29;20031;-82
2021/07/27 10:54:35;;;;;;;4.72;2.50;;;;;;;17.36;79.51;100530.75;4950803;29;20426;-82
2021/07/27 10:57:02;;;;;;;6.68;2.40;;;;;;;17.41;79.02;100539.06;4952513;29;20023;-81
2021/07/27 10:59:35;;;;;;;4.30;2.20;;;;;;;17.46;77.49;100539.19;4947548;29;20036;-83
2021/07/27 11:02:02;;;;;;;6.15;2.65;;;;;;;17.52;76.93;100537.47;4949612;29;20111;-80
2021/07/27 11:04:29;;;;;;;4.88;2.50;;;;;;;17.53;77.71;100542.66;4965168;28;20854;-80
2021/07/27 11:18:10;;;;;;;9.20;3.20;;;;;;;17.01;79.48;100541.31;5025663;28;20414;-79
2021/07/27 11:20:37;;;;;;;8.93;3.15;;;;;;;16.88;79.37;100542.28;5015363;28;20058;-81
2021/07/27 11:23:16;;;;;;;7.72;3.03;;;;;;;16.81;78.91;100545.06;5021290;28;20030;-81
2021/07/27 11:25:42;;;;;;;9.85;3.10;;;;;;;16.65;79.25;100543.69;5017893;28;20025;-82
2021/07/27 11:28:12;;;;;;;8.18;3.38;;;;;;;16.59;79.81;100549.16;5023285;28;20022;-82
2021/07/27 11:30:38;;;;;;;8.07;3.38;;;;;;;16.41;80.57;100537.19;5033081;28;20080;-81
2021/07/27 11:33:08;;;;;;;6.18;2.90;;;;;;;16.32;81.09;100537.69;5019212;28;20033;-82
2021/07/27 11:35:47;;;;;;;7.50;2.80;;;;;;;16.34;81.47;100541.00;5030145;28;20089;-81
2021/07/27 11:38:30;;;;;;;7.47;2.88;;;;;;;16.24;81.19;100545.03;5032996;28;20051;-82
2021/07/27 11:41:06;;;;;;;14.27;5.70;;;;;;;16.25;81.50;100535.03;5021478;28;20030;-82
2021/07/27 11:43:36;;;;;;;28.15;13.75;;;;;;;16.28;81.90;100545.44;5031877;28;20030;-82
2021/07/27 11:46:12;;;;;;;6.50;3.10;;;;;;;16.29;81.79;100547.09;5025370;28;20105;-81
2021/07/27 11:48:39;;;;;;;7.88;3.03;;;;;;;16.30;81.88;100546.06;5030202;28;20034;-81
2021/07/27 11:51:04;;;;;;;5.38;2.42;;;;;;;16.35;81.94;100546.19;5033111;28;20421;-82
2021/07/27 11:53:38;;;;;;;8.27;3.13;;;;;;;16.25;81.57;100525.00;5036217;28;20040;-82
2021/07/27 11:56:11;;;;;;;11.00;3.08;;;;;;;16.37;81.54;100541.38;5034147;28;20582;-82